Millenium Air

Millenium Air Since 1998



 METAR AND TAF INFORMATION
METAR FOR EGFF
ADDS - METARS form results

(0049 UTC 26 February 2021)
Data provider http://aviationweather.gov/metar/data/
 
METAR text: EGFF 260020Z AUTO 01004KT 9999 NCD 04/02 Q1035
Conditions at: EGFF (CARDIFF-WALES AR, GB) observed 0020 UTC 26 February 2021
Temperature: 4.0°C (39°F)
Dewpoint: 2.0°C (36°F) [RH = 87%]
Pressure (altimeter): 30.56 inches Hg (1035.0 mb)
Winds: from the N (10 degrees) at 5 MPH (4 knots; 2.1 m/s)
Visibility: 6 or more miles (10+ km)
Ceiling: at least 12,000 feet AGL
Clouds: sky clear below 12,000 feet AGL
Weather: no significant weather observed at this time

METAR text: EGFF 252350Z AUTO 33006KT 9999 NCD 05/03 Q1035
Conditions at: EGFF (CARDIFF-WALES AR, GB) observed 2350 UTC 25 February 2021
Temperature: 5.0°C (41°F)
Dewpoint: 3.0°C (37°F) [RH = 87%]
Pressure (altimeter): 30.56 inches Hg (1035.0 mb)
Winds: from the NNW (330 degrees) at 7 MPH (6 knots; 3.1 m/s)
Visibility: 6 or more miles (10+ km)
Ceiling: at least 12,000 feet AGL
Clouds: sky clear below 12,000 feet AGL
Weather: no significant weather observed at this time

Forecast for: EGFF (CARDIFF-WALES AR, GB)
Text: TAF EGFF 252254Z 2600/2624 30005KT 9999 FEW035
Forecast period: 0000 UTC 26 February 2021 to 0000 UTC 27 February 2021
Forecast type: FROM: standard forecast or significant change
Winds: from the WNW (300 degrees) at 6 MPH (5 knots; 2.6 m/s)
Visibility: 6 or more miles (10+ km)
Ceiling: at least 12,000 feet AGL
Clouds: few clouds at 3500 feet AGL
Weather: no significant weather forecast for this period
Text: TEMPO 2600/2611 6000
Forecast period: 0000 to 1100 UTC 26 February 2021
Forecast type: TEMPORARY: The following changes expected for less than half the time period
Visibility: 4 miles (6 km)
Ceiling: unknown
Clouds: missing
Weather: no significant weather forecast for this period
Text: PROB30 2603/2609 2000 BR
Forecast period: 0300 to 0900 UTC 26 February 2021
Forecast type: PROBABLE: 30 percent likelihood of the following during this time
Visibility: 1.24 miles (2.00 km)
Ceiling: unknown
Clouds: missing
Weather: BR  (mist)

 AIRPORT MAP

 RUNWAY INFORMATION
Runway 12 Runway length 7848 ft Runway width 151 ft
Runway elevation 205 ft Runway displaced threshold 797 ft Runway heading 117
Runway 30 Runway length 7848 ft Runway width 151 ft
Runway elevation 213 ft Runway displaced threshold 551 ft Runway heading 297

 AIRPORT FREQUENCIES
Type APP Name Cardiff Ap Frequency 119.15 MHZ
Type APP Name Cardiff Ra Frequency 125.85 MHZ
Type ATIS Name ATIS Frequency 132.475 MHZ
Type Radar Name Frequency 133.6 MHZ
Type TWR Name Cardiff Tw Frequency 133.1 MHZ

 AIRPORT NEAR NAVIGATION AIDS